Akron, Ohio
Current Conditions -  °F | °C
As of 11:11 AM on Thursday 30 Oct 2014 (Local Time) from KAKR Reporting Station
Overcast Overcast  
Wind Chill: 45°   Ceiling: 2700
Heat Index: 48°   Visibility: 10mi
Dew Point: 40°   Wind: 7mph
Humidity: 74%   Direction: 10°N
Pressure: 30.12"   Gusts: NA
Location:  41.08°N, 81.51°W
Report Text: KAKR 301511Z AUTO 01006KT 10SM BKN027 OVC041 09/04 A3012 RMK AO2 T00890044
Loading
Personal Weather Stations






























Interactive Weather Map
Tropical Storm Tracking
New forecast layout! Learn more

10-Day Weather Forecast

Advertisements
Track Severe Weather on mobile